createdAt,value
2022-10-31T00:00:57.482Z,38.63
2022-10-31T00:03:31.612Z,39.33
2022-10-31T00:06:05.831Z,41.33
2022-10-31T00:08:40.817Z,38.63
2022-10-31T00:11:15.574Z,40.93
2022-10-31T00:13:48.457Z,41.17
2022-10-31T00:16:21.912Z,42.17
2022-10-31T00:18:56.689Z,37.60
2022-10-31T00:21:29.558Z,38.50
2022-10-31T00:24:02.558Z,41.23
2022-10-31T00:26:35.237Z,38.37
2022-10-31T00:29:08.083Z,40.23
2022-10-31T00:31:40.739Z,39.17
2022-10-31T00:34:14.747Z,38.37
2022-10-31T00:36:49.208Z,41.03
2022-10-31T00:39:22.911Z,41.53
2022-10-31T00:41:55.479Z,37.93
2022-10-31T00:44:28.300Z,38.13
2022-10-31T00:47:03.993Z,38.87
2022-10-31T00:49:38.051Z,36.87
2022-10-31T00:52:10.654Z,41.83
2022-10-31T00:54:43.495Z,38.27
2022-10-31T00:57:16.167Z,37.73
2022-10-31T00:59:49.763Z,36.90
2022-10-31T01:02:22.591Z,37.73
2022-10-31T01:04:58.969Z,34.60
2022-10-31T01:07:31.584Z,36.53
2022-10-31T01:10:04.670Z,37.87
2022-10-31T01:12:38.060Z,40.17
2022-10-31T01:15:11.940Z,36.67
2022-10-31T01:17:44.540Z,35.40
2022-10-31T01:20:20.719Z,37.07
2022-10-31T01:22:53.578Z,35.40
2022-10-31T01:25:26.298Z,36.07
2022-10-31T01:28:02.176Z,32.83
2022-10-31T01:30:35.008Z,34.33
2022-10-31T01:33:07.580Z,37.87
2022-10-31T01:35:42.158Z,31.60
2022-10-31T01:38:17.379Z,27.87
2022-10-31T01:40:49.901Z,29.90
2022-10-31T01:43:22.637Z,33.53
2022-10-31T01:45:56.036Z,32.93
2022-10-31T01:48:32.187Z,32.30
2022-10-31T01:51:07.348Z,30.97
2022-10-31T01:53:41.298Z,32.50
2022-10-31T01:56:14.971Z,34.07
2022-10-31T01:58:48.216Z,27.67
2022-10-31T02:01:21.142Z,29.77
2022-10-31T02:03:54.025Z,37.30
2022-10-31T02:06:34.471Z,24.87
2022-10-31T02:09:09.377Z,28.17
2022-10-31T02:11:42.209Z,28.30
2022-10-31T02:14:18.168Z,29.17
2022-10-31T02:16:50.950Z,30.87
2022-10-31T02:19:26.720Z,24.07
2022-10-31T02:22:04.290Z,27.23
2022-10-31T02:24:54.481Z,26.47
2022-10-31T02:27:41.635Z,28.50
2022-10-31T02:30:17.966Z,27.90
2022-10-31T02:33:08.259Z,29.40
2022-10-31T02:35:49.635Z,26.97
2022-10-31T02:38:26.927Z,26.43
2022-10-31T02:41:03.427Z,28.90
2022-10-31T02:43:42.389Z,25.70
2022-10-31T02:46:16.979Z,27.27
2022-10-31T02:48:55.133Z,29.13
2022-10-31T02:51:28.083Z,24.77
2022-10-31T02:54:03.174Z,26.90
2022-10-31T02:56:35.701Z,28.53
2022-10-31T02:59:14.190Z,30.90
2022-10-31T03:02:02.167Z,27.83
2022-10-31T03:04:59.014Z,26.77
2022-10-31T03:07:41.095Z,26.37
2022-10-31T03:10:16.933Z,25.43
2022-10-31T03:12:52.318Z,26.83
2022-10-31T03:15:27.576Z,23.47
2022-10-31T03:18:06.338Z,27.00
2022-10-31T03:20:41.155Z,25.10
2022-10-31T03:23:17.021Z,27.57
2022-10-31T03:25:50.424Z,32.53
2022-10-31T03:28:25.787Z,26.27
2022-10-31T03:31:00.412Z,25.17
2022-10-31T03:33:36.587Z,23.70
2022-10-31T03:36:10.255Z,27.20
2022-10-31T03:38:44.571Z,26.27
2022-10-31T03:41:20.162Z,22.37
2022-10-31T03:43:56.237Z,22.13
2022-10-31T03:46:29.007Z,25.57
2022-10-31T03:49:01.770Z,22.80
2022-10-31T03:51:39.135Z,21.47
2022-10-31T03:54:15.773Z,20.67
2022-10-31T03:56:52.109Z,22.70
2022-10-31T03:59:26.772Z,21.73
2022-10-31T04:02:02.377Z,20.87
2022-10-31T04:04:35.471Z,22.27
2022-10-31T04:07:08.907Z,22.50
2022-10-31T04:09:45.320Z,22.50
2022-10-31T04:12:18.475Z,20.80
2022-10-31T04:14:53.390Z,22.53
2022-10-31T04:17:33.512Z,24.30
2022-10-31T04:20:06.747Z,20.53
2022-10-31T04:22:39.583Z,26.00
2022-10-31T04:25:15.998Z,22.63
2022-10-31T04:27:48.600Z,22.83
2022-10-31T04:30:21.196Z,19.63
2022-10-31T04:32:53.776Z,23.40
2022-10-31T04:35:26.346Z,22.43
2022-10-31T04:38:01.274Z,22.93
2022-10-31T04:40:35.202Z,20.47
2022-10-31T04:43:07.994Z,21.10
2022-10-31T04:45:40.703Z,22.80
2022-10-31T04:48:13.322Z,21.57
2022-10-31T04:50:45.913Z,23.27
2022-10-31T04:53:18.422Z,25.93
2022-10-31T04:55:52.499Z,22.70
2022-10-31T04:58:25.164Z,21.53
2022-10-31T05:00:57.982Z,22.17
2022-10-31T05:03:30.692Z,27.20
2022-10-31T05:06:03.263Z,22.20
2022-10-31T05:08:35.851Z,23.47
2022-10-31T05:11:09.804Z,28.13
2022-10-31T05:13:42.444Z,22.03
2022-10-31T05:16:14.983Z,22.57
2022-10-31T05:18:47.632Z,19.93
2022-10-31T05:21:20.230Z,24.83
2022-10-31T05:23:53.148Z,21.93
2022-10-31T05:26:27.055Z,19.80
2022-10-31T05:28:59.850Z,22.20
2022-10-31T05:31:33.447Z,19.60
2022-10-31T05:34:06.195Z,17.67
2022-10-31T05:36:38.733Z,24.33
2022-10-31T05:39:11.367Z,21.73
2022-10-31T05:41:45.248Z,23.30
2022-10-31T05:44:17.927Z,23.77
2022-10-31T05:46:50.494Z,23.97
2022-10-31T05:49:23.708Z,23.97
2022-10-31T05:51:57.926Z,23.97
2022-10-31T05:54:30.656Z,18.43
2022-10-31T05:57:04.873Z,21.40
2022-10-31T05:59:37.602Z,26.40
2022-10-31T06:02:10.252Z,21.43
2022-10-31T06:04:42.817Z,20.23
2022-10-31T06:07:15.443Z,24.30
2022-10-31T06:09:48.005Z,21.00
2022-10-31T06:12:24.572Z,24.27
2022-10-31T06:14:57.151Z,21.07
2022-10-31T06:17:31.867Z,22.03
2022-10-31T06:20:05.033Z,22.90
2022-10-31T06:22:37.663Z,23.47
2022-10-31T06:25:10.467Z,22.43
2022-10-31T06:27:45.753Z,20.20
2022-10-31T06:30:18.394Z,26.07
2022-10-31T06:32:51.350Z,18.10
2022-10-31T06:35:24.026Z,25.47
2022-10-31T06:37:56.687Z,23.87
2022-10-31T06:40:30.231Z,22.50
2022-10-31T06:43:04.099Z,23.60
2022-10-31T06:45:36.704Z,23.63
2022-10-31T06:48:17.342Z,21.73
2022-10-31T06:50:51.540Z,24.20
2022-10-31T06:53:26.356Z,22.00
2022-10-31T06:55:58.945Z,24.10
2022-10-31T06:58:35.355Z,23.87
2022-10-31T07:01:08.260Z,19.77
2022-10-31T07:03:41.855Z,24.07
2022-10-31T07:06:14.505Z,19.00
2022-10-31T07:08:47.103Z,21.57
2022-10-31T07:11:19.658Z,23.23
2022-10-31T07:13:54.764Z,22.07
2022-10-31T07:16:27.417Z,25.23
2022-10-31T07:19:01.346Z,20.53
2022-10-31T07:21:33.985Z,22.57
2022-10-31T07:24:06.950Z,19.33
2022-10-31T07:26:39.521Z,18.80
2022-10-31T07:29:17.181Z,21.13
2022-10-31T07:31:49.862Z,20.57
2022-10-31T07:34:22.364Z,22.50
2022-10-31T07:36:55.277Z,19.33
2022-10-31T07:39:27.854Z,23.60
2022-10-31T07:42:00.572Z,24.63
2022-10-31T07:44:35.244Z,21.23
2022-10-31T07:47:09.703Z,23.47
2022-10-31T07:49:42.403Z,23.93
2022-10-31T07:52:15.057Z,22.83
2022-10-31T07:54:47.641Z,23.73
2022-10-31T07:57:24.147Z,25.70
2022-10-31T07:59:59.027Z,24.67
2022-10-31T08:02:31.583Z,24.00
2022-10-31T08:05:04.355Z,21.63
2022-10-31T08:07:38.194Z,25.90
2022-10-31T08:10:13.988Z,27.10
2022-10-31T08:12:46.556Z,27.37
2022-10-31T08:15:20.491Z,30.53
2022-10-31T08:17:53.172Z,28.03
2022-10-31T08:20:25.867Z,26.67
2022-10-31T08:22:59.200Z,28.50
2022-10-31T08:25:37.408Z,26.73
2022-10-31T08:28:12.058Z,26.57
2022-10-31T08:30:48.744Z,23.27
2022-10-31T08:33:21.313Z,27.70
2022-10-31T08:35:55.992Z,27.03
2022-10-31T08:38:28.887Z,26.63
2022-10-31T08:41:01.400Z,27.60
2022-10-31T08:43:38.694Z,31.20
2022-10-31T08:46:12.872Z,27.87
2022-10-31T08:48:45.696Z,29.83
2022-10-31T08:51:18.272Z,23.23
2022-10-31T08:53:50.945Z,27.70
2022-10-31T08:56:25.166Z,27.47
2022-10-31T08:58:57.905Z,27.47
2022-10-31T09:01:36.988Z,26.80
2022-10-31T09:04:09.625Z,30.40
2022-10-31T09:07:07.883Z,27.50
2022-10-31T09:09:36.537Z,29.83
2022-10-31T09:12:09.191Z,32.47
2022-10-31T09:14:41.763Z,32.37
2022-10-31T09:17:16.365Z,28.00
2022-10-31T09:19:49.131Z,25.33
2022-10-31T09:22:23.022Z,23.50
2022-10-31T09:24:59.388Z,29.70
2022-10-31T09:27:36.346Z,28.37
2022-10-31T09:30:11.631Z,28.30
2022-10-31T09:32:50.417Z,29.07
2022-10-31T09:35:26.422Z,28.17
2022-10-31T09:38:01.362Z,26.93
2022-10-31T09:40:36.822Z,31.63
2022-10-31T09:43:14.185Z,25.60
2022-10-31T09:45:53.650Z,31.53
2022-10-31T09:48:34.866Z,27.97
2022-10-31T09:51:09.014Z,30.40
2022-10-31T09:53:43.088Z,29.77
2022-10-31T09:56:17.629Z,34.97
2022-10-31T09:58:56.196Z,32.17
2022-10-31T10:01:35.461Z,29.23
2022-10-31T10:04:20.844Z,38.07
2022-10-31T10:06:56.551Z,37.17
2022-10-31T10:09:30.285Z,34.50
2022-10-31T10:12:08.494Z,29.83
2022-10-31T10:14:50.319Z,27.83
2022-10-31T10:17:28.086Z,28.60
2022-10-31T10:20:18.358Z,30.47
2022-10-31T10:23:00.311Z,32.13
2022-10-31T10:25:35.853Z,32.13
2022-10-31T10:28:17.065Z,28.20
2022-10-31T10:30:52.433Z,30.37
2022-10-31T10:33:27.109Z,29.57
2022-10-31T10:36:00.802Z,31.13
2022-10-31T10:38:38.500Z,53.83
2022-10-31T10:41:13.774Z,29.93
2022-10-31T10:46:46.962Z,34.37
2022-10-31T10:49:20.353Z,31.70
2022-10-31T10:52:13.215Z,32.70
2022-10-31T10:54:56.936Z,35.70
2022-10-31T10:57:35.220Z,29.60
2022-10-31T11:00:17.839Z,33.80
2022-10-31T11:02:50.674Z,28.30
2022-10-31T11:05:28.133Z,29.83
2022-10-31T11:08:00.793Z,30.83
2022-10-31T11:10:34.863Z,34.30
2022-10-31T11:13:19.550Z,29.77
2022-10-31T11:15:54.757Z,42.67
2022-10-31T11:18:27.836Z,32.80
2022-10-31T11:21:01.287Z,32.63
2022-10-31T11:23:34.445Z,33.37
2022-10-31T11:26:18.447Z,30.17
2022-10-31T11:28:58.395Z,34.07
2022-10-31T11:31:32.228Z,32.87
2022-10-31T11:34:05.878Z,30.97
2022-10-31T11:36:40.060Z,34.83
2022-10-31T11:39:19.156Z,34.53
2022-10-31T11:41:54.142Z,35.70
2022-10-31T11:44:28.425Z,36.77
2022-10-31T11:47:02.409Z,34.97
2022-10-31T11:49:36.908Z,31.03
2022-10-31T11:52:10.549Z,35.07
2022-10-31T11:54:44.500Z,37.37
2022-10-31T11:57:27.135Z,35.03
2022-10-31T12:00:01.349Z,33.30
2022-10-31T12:02:34.017Z,36.77
2022-10-31T12:05:10.030Z,38.20
2022-10-31T12:07:45.484Z,33.00
2022-10-31T12:10:21.037Z,40.40
2022-10-31T12:13:03.701Z,43.73
2022-10-31T12:15:37.511Z,36.20
2022-10-31T12:18:27.110Z,36.43
2022-10-31T12:21:08.451Z,37.07
2022-10-31T12:23:47.772Z,36.63
2022-10-31T12:26:22.918Z,33.40
2022-10-31T12:29:09.430Z,42.23
2022-10-31T12:31:47.541Z,37.17
2022-10-31T12:34:35.228Z,39.83
2022-10-31T12:37:12.285Z,33.60
2022-10-31T12:39:49.167Z,37.20
2022-10-31T12:42:26.181Z,34.67
2022-10-31T12:45:17.522Z,35.33
2022-10-31T12:47:57.990Z,35.73
2022-10-31T12:50:45.412Z,38.77
2022-10-31T12:53:23.509Z,28.20
2022-10-31T12:56:01.517Z,30.60
2022-10-31T12:58:35.644Z,33.50
2022-10-31T13:01:14.388Z,31.40
2022-10-31T13:03:49.433Z,33.03
2022-10-31T13:06:24.101Z,32.67
2022-10-31T13:08:58.630Z,45.03
2022-10-31T13:11:33.071Z,32.30
2022-10-31T13:14:09.438Z,27.97
2022-10-31T13:16:44.660Z,32.80
2022-10-31T13:19:18.872Z,31.80
2022-10-31T13:21:56.349Z,32.50
2022-10-31T13:24:32.753Z,32.27
2022-10-31T13:27:11.419Z,30.23
2022-10-31T13:29:46.132Z,31.37
2022-10-31T13:32:20.947Z,36.60
2022-10-31T13:34:55.026Z,44.07
2022-10-31T13:37:31.913Z,33.27
2022-10-31T13:40:11.657Z,37.70
2022-10-31T13:42:51.503Z,35.87
2022-10-31T13:45:25.621Z,31.87
2022-10-31T13:48:01.284Z,32.07
2022-10-31T13:50:34.711Z,35.47
2022-10-31T13:53:14.772Z,33.40
2022-10-31T13:55:48.056Z,35.27
2022-10-31T13:58:25.223Z,36.87
2022-10-31T14:01:05.508Z,36.57
2022-10-31T14:04:03.635Z,34.87
2022-10-31T14:06:44.696Z,39.03
2022-10-31T14:09:25.320Z,38.77
2022-10-31T14:11:58.995Z,40.23
2022-10-31T14:14:36.611Z,43.73
2022-10-31T14:17:17.963Z,39.40
2022-10-31T14:20:22.776Z,42.33
2022-10-31T14:22:55.543Z,42.90
2022-10-31T14:25:30.154Z,41.33
2022-10-31T14:28:04.283Z,45.87
2022-10-31T14:30:38.025Z,48.93
2022-10-31T14:33:14.826Z,45.87
2022-10-31T14:35:53.529Z,44.70
2022-10-31T14:38:56.801Z,50.13
2022-10-31T14:41:40.260Z,47.53
2022-10-31T14:44:42.680Z,46.03
2022-10-31T14:47:20.824Z,44.87
2022-10-31T14:50:05.190Z,47.13
2022-10-31T14:52:40.051Z,46.63
2022-10-31T14:55:14.111Z,50.70
2022-10-31T14:57:49.969Z,46.50
2022-10-31T15:00:23.652Z,50.67
2022-10-31T15:03:03.189Z,52.33
2022-10-31T15:05:36.995Z,55.17
2022-10-31T15:08:29.012Z,56.20
2022-10-31T15:11:07.495Z,51.70
2022-10-31T15:13:43.928Z,52.97
2022-10-31T15:16:18.180Z,59.23
2022-10-31T15:18:53.560Z,57.47
2022-10-31T15:21:29.089Z,60.53
2022-10-31T15:24:06.523Z,59.57
2022-10-31T15:26:46.653Z,56.93
2022-10-31T15:29:22.400Z,55.30
2022-10-31T15:31:58.464Z,57.47
2022-10-31T15:34:34.777Z,58.73
2022-10-31T15:37:11.327Z,52.63
2022-10-31T15:39:45.923Z,61.17
2022-10-31T15:42:23.323Z,56.93
2022-10-31T15:45:03.438Z,63.73
2022-10-31T15:47:36.328Z,81.43
2022-10-31T15:50:20.283Z,71.00
2022-10-31T15:52:53.179Z,71.93
2022-10-31T15:55:28.918Z,69.30
2022-10-31T15:58:12.081Z,68.73
2022-10-31T16:00:45.012Z,75.40
2022-10-31T16:03:24.897Z,77.33
2022-10-31T16:05:58.456Z,74.17
2022-10-31T16:08:35.266Z,75.93
2022-10-31T16:11:23.139Z,80.10
2022-10-31T16:13:57.819Z,77.77
2022-10-31T16:16:36.031Z,83.97
2022-10-31T16:19:17.043Z,86.93
2022-10-31T16:21:50.751Z,86.10
2022-10-31T16:24:28.910Z,96.47
2022-10-31T16:27:05.981Z,100.03
2022-10-31T16:29:41.225Z,92.70
2022-10-31T16:32:27.071Z,91.23
2022-10-31T16:35:04.525Z,97.20
2022-10-31T16:37:39.095Z,94.53
2022-10-31T16:40:13.021Z,98.87
2022-10-31T16:42:48.162Z,90.47
2022-10-31T16:45:22.655Z,88.40
2022-10-31T16:47:55.357Z,91.30
2022-10-31T16:50:28.953Z,91.10
2022-10-31T16:53:13.863Z,94.07
2022-10-31T16:55:47.909Z,101.90
2022-10-31T16:58:23.783Z,93.30
2022-10-31T17:00:56.449Z,88.00
2022-10-31T17:03:29.199Z,97.77
2022-10-31T17:06:02.007Z,89.13
2022-10-31T17:08:34.632Z,94.80
2022-10-31T17:11:07.655Z,89.40
2022-10-31T17:13:41.661Z,101.70
2022-10-31T17:16:14.791Z,91.67
2022-10-31T17:18:47.557Z,95.73
2022-10-31T17:21:23.001Z,94.37
2022-10-31T17:23:55.847Z,102.37
2022-10-31T17:26:30.991Z,98.20
2022-10-31T17:29:07.150Z,120.50
2022-10-31T17:31:41.573Z,96.10
2022-10-31T17:34:14.448Z,109.70
2022-10-31T17:36:51.004Z,100.03
2022-10-31T17:39:23.955Z,94.53
2022-10-31T17:41:58.550Z,89.17
2022-10-31T17:44:32.644Z,90.00
2022-10-31T17:47:06.228Z,84.80
2022-10-31T17:49:40.527Z,85.03
2022-10-31T17:52:13.122Z,80.67
2022-10-31T17:54:45.731Z,68.83
2022-10-31T17:57:18.455Z,70.87
2022-10-31T17:59:52.362Z,72.40
2022-10-31T18:02:25.209Z,75.10
2022-10-31T18:04:58.086Z,66.33
2022-10-31T18:07:30.733Z,63.50
2022-10-31T18:10:03.324Z,74.37
2022-10-31T18:12:36.645Z,66.30
2022-10-31T18:15:11.080Z,85.63
2022-10-31T18:17:43.673Z,76.57
2022-10-31T18:20:16.304Z,79.93
2022-10-31T18:22:48.919Z,76.03
2022-10-31T18:25:21.463Z,98.60
2022-10-31T18:27:54.080Z,91.67
2022-10-31T18:30:28.696Z,81.03
2022-10-31T18:33:02.028Z,82.67
2022-10-31T18:35:36.033Z,93.73
2022-10-31T18:38:09.632Z,95.20
2022-10-31T18:40:42.629Z,89.50
2022-10-31T18:43:15.155Z,95.93
2022-10-31T18:45:52.296Z,92.83
2022-10-31T18:48:28.363Z,94.83
2022-10-31T18:53:40.461Z,94.63
2022-10-31T18:56:13.934Z,85.80
2022-10-31T18:58:48.321Z,81.97
2022-10-31T19:01:22.611Z,93.07
2022-10-31T19:03:58.903Z,75.57
2022-10-31T19:06:31.839Z,81.73
2022-10-31T19:09:09.150Z,80.57
2022-10-31T19:11:46.088Z,81.83
2022-10-31T19:14:18.757Z,80.53
2022-10-31T19:16:53.005Z,89.30
2022-10-31T19:19:28.649Z,96.20
2022-10-31T19:22:01.768Z,83.77
2022-10-31T19:24:34.371Z,86.93
2022-10-31T19:27:07.176Z,88.33
2022-10-31T19:29:42.061Z,85.20
2022-10-31T19:32:16.019Z,82.73
2022-10-31T19:34:48.526Z,88.17
2022-10-31T19:37:21.220Z,82.63
2022-10-31T19:39:53.862Z,78.77
2022-10-31T19:42:26.407Z,80.37
2022-10-31T19:45:00.138Z,82.10
2022-10-31T19:47:34.222Z,78.27
2022-10-31T19:50:07.318Z,79.20
2022-10-31T19:52:40.163Z,71.53
2022-10-31T19:55:12.667Z,83.47
2022-10-31T19:58:11.116Z,70.37
2022-10-31T20:00:39.918Z,68.97
2022-10-31T20:03:18.403Z,72.43
2022-10-31T20:05:54.063Z,69.37
2022-10-31T20:08:28.075Z,72.67
2022-10-31T20:11:02.026Z,64.20
2022-10-31T20:13:34.711Z,65.03
2022-10-31T20:16:08.826Z,58.67
2022-10-31T20:18:43.435Z,58.33
2022-10-31T20:21:17.096Z,53.13
2022-10-31T20:23:49.655Z,52.50
2022-10-31T20:26:22.348Z,56.20
2022-10-31T20:28:56.306Z,52.97
2022-10-31T20:31:33.200Z,52.63
2022-10-31T20:34:13.742Z,51.97
2022-10-31T20:36:49.514Z,54.47
2022-10-31T20:39:24.182Z,52.77
2022-10-31T20:41:58.372Z,44.23
2022-10-31T20:44:30.951Z,50.70
2022-10-31T20:47:04.145Z,47.80
2022-10-31T20:49:38.074Z,49.80
2022-10-31T20:52:11.082Z,50.37
2022-10-31T20:54:43.669Z,49.07
2022-10-31T20:57:16.422Z,49.43
2022-10-31T20:59:49.938Z,46.67
2022-10-31T21:02:22.730Z,49.73
2022-10-31T21:04:56.735Z,48.70
2022-10-31T21:07:31.081Z,44.23
2022-10-31T21:10:04.516Z,42.37
2022-10-31T21:12:37.269Z,47.67
2022-10-31T21:15:10.890Z,47.27
2022-10-31T21:17:43.379Z,43.90
2022-10-31T21:20:20.297Z,47.57
2022-10-31T21:22:54.544Z,48.00
2022-10-31T21:25:28.325Z,48.37
2022-10-31T21:28:01.310Z,47.13
2022-10-31T21:30:34.085Z,48.07
2022-10-31T21:33:09.451Z,48.40
2022-10-31T21:35:49.225Z,50.20
2022-10-31T21:38:21.834Z,51.60
2022-10-31T21:40:59.239Z,46.67
2022-10-31T21:43:32.189Z,46.80
2022-10-31T21:46:05.066Z,43.77
2022-10-31T21:48:41.853Z,43.37
2022-10-31T21:51:16.844Z,46.33
2022-10-31T21:54:07.441Z,45.20
2022-10-31T21:56:40.150Z,45.20
2022-10-31T21:59:19.036Z,48.17
2022-10-31T22:01:51.832Z,45.00
2022-10-31T22:04:24.590Z,43.87
2022-10-31T22:07:00.880Z,44.10
2022-10-31T22:09:35.595Z,46.47
2022-10-31T22:12:09.177Z,44.60
2022-10-31T22:17:15.318Z,45.57
2022-10-31T22:19:49.170Z,49.87
2022-10-31T22:22:23.103Z,46.10
2022-10-31T22:24:55.672Z,45.03
2022-10-31T22:27:28.201Z,42.03
2022-10-31T22:30:00.928Z,45.53
2022-10-31T22:32:34.802Z,48.03
2022-10-31T22:35:07.811Z,47.30
2022-10-31T22:37:41.731Z,47.10
2022-10-31T22:40:14.354Z,48.63
2022-10-31T22:42:46.960Z,47.67
2022-10-31T22:45:19.628Z,49.37
2022-10-31T22:47:52.201Z,49.80
2022-10-31T22:50:24.772Z,48.53
2022-10-31T22:52:58.753Z,49.40
2022-10-31T22:55:31.377Z,52.47
2022-10-31T22:58:04.229Z,52.43
2022-10-31T23:00:36.756Z,54.57
2022-10-31T23:03:09.677Z,50.97
2022-10-31T23:05:42.404Z,51.63
2022-10-31T23:08:16.400Z,55.90
2022-10-31T23:10:48.920Z,60.73
2022-10-31T23:13:39.707Z,58.93
2022-10-31T23:16:13.195Z,65.57
2022-10-31T23:18:50.357Z,65.30
2022-10-31T23:21:43.694Z,61.70
2022-10-31T23:24:17.637Z,68.97
2022-10-31T23:27:07.666Z,73.37
2022-10-31T23:29:41.735Z,66.83
2022-10-31T23:32:16.709Z,62.50
2022-10-31T23:34:50.245Z,61.80
2022-10-31T23:37:26.118Z,67.23
2022-10-31T23:40:00.299Z,68.23
2022-10-31T23:42:32.696Z,61.57
2022-10-31T23:45:05.498Z,60.57
2022-10-31T23:47:42.405Z,62.83
2022-10-31T23:50:16.258Z,62.37
2022-10-31T23:52:48.940Z,64.50
2022-10-31T23:55:22.853Z,61.53
2022-10-31T23:57:56.656Z,63.97
